createdAt,value
2019-03-25T00:00:08.083Z,4.03
2019-03-25T00:02:38.100Z,3.98
2019-03-25T00:05:06.172Z,3.93
2019-03-25T00:07:34.034Z,3.77
2019-03-25T00:10:02.930Z,3.72
2019-03-25T00:12:30.693Z,3.68
2019-03-25T00:14:58.764Z,3.69
2019-03-25T00:17:26.733Z,3.69
2019-03-25T00:19:54.701Z,3.62
2019-03-25T00:22:22.668Z,3.59
2019-03-25T00:24:50.639Z,3.58
2019-03-25T00:27:18.605Z,3.57
2019-03-25T00:29:46.166Z,3.52
2019-03-25T00:32:14.032Z,3.50
2019-03-25T00:34:41.896Z,3.43
2019-03-25T00:37:09.763Z,3.46
2019-03-25T00:39:37.934Z,3.35
2019-03-25T00:42:05.704Z,3.43
2019-03-25T00:44:34.184Z,3.41
2019-03-25T00:47:01.942Z,3.44
2019-03-25T00:49:29.712Z,3.42
2019-03-25T00:51:57.573Z,3.38
2019-03-25T00:54:25.950Z,3.34
2019-03-25T00:56:53.817Z,3.31
2019-03-25T00:59:22.812Z,3.34
2019-03-25T01:01:51.290Z,3.33
2019-03-25T01:04:18.961Z,3.29
2019-03-25T01:06:46.801Z,3.43
2019-03-25T01:09:14.580Z,3.59
2019-03-25T01:11:49.073Z,3.70
2019-03-25T01:14:12.057Z,3.73
2019-03-25T01:16:39.817Z,3.87
2019-03-25T01:19:07.691Z,3.95
2019-03-25T01:21:35.344Z,4.03
2019-03-25T01:24:03.331Z,3.96
2019-03-25T01:26:31.180Z,3.90
2019-03-25T01:28:58.837Z,3.93
2019-03-25T01:31:26.609Z,3.95
2019-03-25T01:33:54.371Z,3.77
2019-03-25T01:36:22.237Z,3.86
2019-03-25T01:38:50.101Z,3.65
2019-03-25T01:41:17.969Z,3.60
2019-03-25T01:43:45.736Z,3.61
2019-03-25T01:46:13.598Z,3.81
2019-03-25T01:48:41.361Z,3.64
2019-03-25T01:51:09.332Z,3.55
2019-03-25T01:53:38.288Z,3.45
2019-03-25T01:56:06.087Z,3.50
2019-03-25T01:58:33.851Z,3.48
2019-03-25T02:01:03.155Z,3.56
2019-03-25T02:03:31.223Z,3.46
2019-03-25T02:05:59.907Z,3.52
2019-03-25T02:08:27.667Z,3.61
2019-03-25T02:10:55.434Z,3.46
2019-03-25T02:13:24.120Z,3.54
2019-03-25T02:15:51.879Z,3.56
2019-03-25T02:18:19.647Z,3.55
2019-03-25T02:20:47.411Z,3.45
2019-03-25T02:23:15.284Z,3.43
2019-03-25T02:25:43.140Z,3.43
2019-03-25T02:28:11.005Z,3.35
2019-03-25T02:30:38.874Z,3.38
2019-03-25T02:33:06.642Z,3.41
2019-03-25T02:35:34.626Z,3.18
2019-03-25T02:38:02.370Z,3.16
2019-03-25T02:40:30.138Z,3.17
2019-03-25T02:42:57.902Z,3.19
2019-03-25T02:45:25.659Z,3.24
2019-03-25T02:47:53.440Z,3.05
2019-03-25T02:50:21.297Z,3.13
2019-03-25T02:52:49.568Z,3.27
2019-03-25T02:55:17.432Z,3.27
2019-03-25T02:57:45.197Z,3.18
2019-03-25T03:00:15.314Z,2.91
2019-03-25T03:02:44.004Z,2.86
2019-03-25T03:05:11.471Z,2.91
2019-03-25T03:07:39.326Z,2.69
2019-03-25T03:10:07.083Z,2.64
2019-03-25T03:12:34.954Z,2.48
2019-03-25T03:15:04.869Z,2.33
2019-03-25T03:17:32.221Z,2.30
2019-03-25T03:19:59.985Z,2.16
2019-03-25T03:22:27.751Z,2.11
2019-03-25T03:24:55.613Z,2.21
2019-03-25T03:27:23.483Z,2.18
2019-03-25T03:29:51.247Z,2.18
2019-03-25T03:32:19.014Z,2.19
2019-03-25T03:34:46.932Z,2.12
2019-03-25T03:37:14.744Z,2.19
2019-03-25T03:39:42.500Z,2.13
2019-03-25T03:42:10.476Z,2.06
2019-03-25T03:44:38.339Z,2.01
2019-03-25T03:47:06.306Z,2.13
2019-03-25T03:49:34.284Z,2.12
2019-03-25T03:52:02.248Z,2.24
2019-03-25T03:54:30.828Z,2.44
2019-03-25T03:56:58.695Z,2.50
2019-03-25T03:59:27.688Z,2.48
2019-03-25T04:01:56.066Z,2.46
2019-03-25T04:04:24.030Z,2.50
2019-03-25T04:06:52.126Z,2.63
2019-03-25T04:09:20.072Z,2.71
2019-03-25T04:11:47.937Z,2.95
2019-03-25T04:14:15.908Z,2.79
2019-03-25T04:16:43.777Z,2.97
2019-03-25T04:19:11.738Z,2.89
2019-03-25T04:21:39.707Z,2.94
2019-03-25T04:24:07.674Z,3.16
2019-03-25T04:26:35.652Z,3.02
2019-03-25T04:29:03.639Z,3.03
2019-03-25T04:31:31.583Z,3.21
2019-03-25T04:33:59.550Z,3.53
2019-03-25T04:36:27.626Z,3.52
2019-03-25T04:38:55.592Z,3.31
2019-03-25T04:41:23.562Z,3.55
2019-03-25T04:43:51.426Z,3.65
2019-03-25T04:46:19.398Z,3.76
2019-03-25T04:48:47.385Z,3.94
2019-03-25T04:51:15.332Z,4.02
2019-03-25T04:53:43.917Z,4.28
2019-03-25T04:56:11.985Z,4.25
2019-03-25T04:58:40.058Z,4.13
2019-03-25T05:01:08.432Z,4.23
2019-03-25T05:03:36.813Z,4.29
2019-03-25T05:06:04.881Z,4.38
2019-03-25T05:08:32.857Z,4.63
2019-03-25T05:11:01.138Z,4.43
2019-03-25T05:13:30.424Z,4.49
2019-03-25T05:15:58.401Z,4.61
2019-03-25T05:18:26.373Z,4.57
2019-03-25T05:20:54.334Z,4.76
2019-03-25T05:23:22.504Z,5.05
2019-03-25T05:25:50.478Z,5.17
2019-03-25T05:28:18.543Z,5.15
2019-03-25T05:30:46.619Z,4.91
2019-03-25T05:33:14.593Z,5.02
2019-03-25T05:35:42.658Z,5.27
2019-03-25T05:38:10.730Z,5.55
2019-03-25T05:40:38.493Z,5.64
2019-03-25T05:43:06.577Z,5.82
2019-03-25T05:45:34.531Z,6.19
2019-03-25T05:48:02.600Z,6.13
2019-03-25T05:50:30.978Z,6.70
2019-03-25T05:52:59.462Z,6.70
2019-03-25T05:55:27.533Z,6.69
2019-03-25T05:57:55.813Z,7.03
2019-03-25T06:00:26.034Z,7.24
2019-03-25T06:02:53.595Z,7.28
2019-03-25T06:05:21.656Z,7.28
2019-03-25T06:07:49.629Z,7.46
2019-03-25T06:10:17.588Z,7.48
2019-03-25T06:12:45.665Z,7.48
2019-03-25T06:15:13.845Z,7.86
2019-03-25T06:17:41.907Z,8.14
2019-03-25T06:20:09.772Z,8.29
2019-03-25T06:22:37.860Z,8.29
2019-03-25T06:25:06.019Z,8.41
2019-03-25T06:27:33.779Z,8.56
2019-03-25T06:30:04.284Z,8.91
2019-03-25T06:32:31.869Z,8.98
2019-03-25T06:34:59.841Z,9.04
2019-03-25T06:37:27.805Z,9.17
2019-03-25T06:39:55.872Z,9.12
2019-03-25T06:42:23.950Z,9.28
2019-03-25T06:44:51.921Z,9.35
2019-03-25T06:47:19.990Z,8.92
2019-03-25T06:49:48.059Z,9.50
2019-03-25T06:52:16.542Z,9.70
2019-03-25T06:54:44.213Z,9.85
2019-03-25T06:57:12.310Z,9.73
2019-03-25T06:59:40.240Z,9.73
2019-03-25T07:02:08.417Z,9.87
2019-03-25T07:04:36.380Z,9.92
2019-03-25T07:07:04.353Z,10.03
2019-03-25T07:09:32.423Z,10.03
2019-03-25T07:12:00.394Z,10.05
2019-03-25T07:14:28.358Z,10.20
2019-03-25T07:16:56.325Z,10.32
2019-03-25T07:19:24.317Z,10.41
2019-03-25T07:21:52.266Z,10.45
2019-03-25T07:24:20.334Z,10.37
2019-03-25T07:26:48.303Z,10.54
2019-03-25T07:29:16.277Z,10.44
2019-03-25T07:31:44.242Z,10.36
2019-03-25T07:34:12.210Z,10.57
2019-03-25T07:36:40.283Z,10.53
2019-03-25T07:39:08.555Z,10.62
2019-03-25T07:41:36.422Z,10.95
2019-03-25T07:44:04.494Z,11.15
2019-03-25T07:46:32.562Z,11.00
2019-03-25T07:49:00.562Z,10.82
2019-03-25T07:51:28.603Z,10.79
2019-03-25T07:53:57.093Z,11.12
2019-03-25T07:56:24.861Z,11.36
2019-03-25T07:58:52.826Z,11.67
2019-03-25T08:01:21.093Z,11.75
2019-03-25T08:03:48.853Z,11.99
2019-03-25T08:06:16.845Z,12.19
2019-03-25T08:08:44.702Z,12.15
2019-03-25T08:11:12.662Z,12.00
2019-03-25T08:13:40.740Z,12.52
2019-03-25T08:16:09.413Z,12.28
2019-03-25T08:18:37.388Z,12.58
2019-03-25T08:21:05.453Z,12.48
2019-03-25T08:23:33.418Z,12.39
2019-03-25T08:26:01.393Z,12.14
2019-03-25T08:28:29.459Z,11.78
2019-03-25T08:30:57.533Z,11.94
2019-03-25T08:33:25.396Z,11.92
2019-03-25T08:35:53.478Z,12.09
2019-03-25T08:38:21.541Z,11.79
2019-03-25T08:40:49.404Z,12.10
2019-03-25T08:43:17.374Z,12.70
2019-03-25T08:45:45.348Z,12.98
2019-03-25T08:48:13.310Z,13.21
2019-03-25T08:50:41.687Z,13.62
2019-03-25T08:53:11.194Z,13.44
2019-03-25T08:55:39.162Z,13.63
2019-03-25T08:58:12.032Z,13.46
2019-03-25T09:00:37.468Z,12.50
2019-03-25T09:03:05.220Z,13.23
2019-03-25T09:05:33.195Z,13.44
2019-03-25T09:08:01.054Z,13.39
2019-03-25T09:10:29.026Z,12.77
2019-03-25T09:12:57.095Z,12.72
2019-03-25T09:15:24.967Z,12.69
2019-03-25T09:17:52.872Z,12.79
2019-03-25T09:20:20.791Z,12.55
2019-03-25T09:22:48.769Z,12.41
2019-03-25T09:25:16.837Z,12.49
2019-03-25T09:27:44.698Z,12.56
2019-03-25T09:30:17.378Z,12.89
2019-03-25T09:32:45.175Z,12.92
2019-03-25T09:35:13.311Z,12.91
2019-03-25T09:37:41.386Z,12.83
2019-03-25T09:40:10.793Z,12.91
2019-03-25T09:42:38.758Z,12.89
2019-03-25T09:45:07.645Z,13.16
2019-03-25T09:47:37.832Z,13.03
2019-03-25T09:50:06.039Z,13.46
2019-03-25T09:52:38.635Z,13.48
2019-03-25T09:55:05.916Z,13.48
2019-03-25T09:57:33.539Z,13.68
2019-03-25T10:00:03.508Z,13.53
2019-03-25T10:02:32.439Z,13.66
2019-03-25T10:05:00.611Z,13.41
2019-03-25T10:07:29.299Z,13.24
2019-03-25T10:09:57.271Z,12.82
2019-03-25T10:12:25.241Z,13.19
2019-03-25T10:14:53.420Z,12.74
2019-03-25T10:17:22.196Z,12.96
2019-03-25T10:19:50.166Z,12.73
2019-03-25T10:22:18.141Z,13.04
2019-03-25T10:24:46.310Z,12.77
2019-03-25T10:27:14.889Z,12.66
2019-03-25T10:29:42.858Z,12.74
2019-03-25T10:32:10.942Z,12.94
2019-03-25T10:34:38.999Z,13.06
2019-03-25T10:37:07.070Z,12.94
2019-03-25T10:39:35.241Z,13.21
2019-03-25T10:42:03.212Z,13.12
2019-03-25T10:44:31.288Z,13.15
2019-03-25T10:46:59.251Z,13.02
2019-03-25T10:49:27.220Z,13.21
2019-03-25T10:51:55.188Z,13.24
2019-03-25T10:54:23.793Z,13.60
2019-03-25T10:56:51.639Z,13.95
2019-03-25T10:59:19.722Z,13.54
2019-03-25T11:01:48.292Z,13.37
2019-03-25T11:04:16.054Z,13.46
2019-03-25T11:06:44.843Z,13.35
2019-03-25T11:09:12.834Z,13.86
2019-03-25T11:11:40.876Z,13.45
2019-03-25T11:14:08.850Z,13.29
2019-03-25T11:16:38.768Z,13.57
2019-03-25T11:19:06.626Z,13.27
2019-03-25T11:21:34.707Z,12.95
2019-03-25T11:24:02.775Z,12.73
2019-03-25T11:26:30.744Z,13.27
2019-03-25T11:29:04.598Z,13.45
2019-03-25T11:31:28.631Z,13.57
2019-03-25T11:33:56.495Z,13.72
2019-03-25T11:36:24.580Z,13.68
2019-03-25T11:38:52.627Z,13.69
2019-03-25T11:41:21.530Z,13.80
2019-03-25T11:43:49.492Z,13.61
2019-03-25T11:46:17.660Z,13.62
2019-03-25T11:48:45.631Z,13.14
2019-03-25T11:51:13.602Z,13.11
2019-03-25T11:53:42.194Z,13.19
2019-03-25T11:56:10.064Z,13.64
2019-03-25T11:58:38.019Z,13.41
2019-03-25T12:01:06.397Z,13.50
2019-03-25T12:03:34.262Z,13.75
2019-03-25T12:06:02.234Z,13.89
2019-03-25T12:08:30.093Z,13.91
2019-03-25T12:10:58.170Z,14.14
2019-03-25T12:13:26.339Z,14.13
2019-03-25T12:15:54.202Z,14.27
2019-03-25T12:18:22.175Z,13.69
2019-03-25T12:20:50.141Z,14.09
2019-03-25T12:23:26.044Z,13.29
2019-03-25T12:25:47.821Z,13.62
2019-03-25T12:28:15.786Z,13.48
2019-03-25T12:30:44.891Z,13.65
2019-03-25T12:33:12.850Z,13.43
2019-03-25T12:35:40.922Z,13.67
2019-03-25T12:38:09.009Z,13.62
2019-03-25T12:40:36.870Z,13.81
2019-03-25T12:43:05.032Z,13.57
2019-03-25T12:45:33.111Z,13.05
2019-03-25T12:48:01.073Z,12.95
2019-03-25T12:50:29.039Z,13.55
2019-03-25T12:52:57.319Z,13.47
2019-03-25T12:55:24.978Z,13.26
2019-03-25T12:57:52.949Z,13.49
2019-03-25T13:00:36.075Z,13.29
2019-03-25T13:03:04.448Z,13.49
2019-03-25T13:05:35.385Z,13.56
2019-03-25T13:08:03.163Z,13.49
2019-03-25T13:13:37.798Z,13.44
2019-03-25T13:16:05.765Z,13.51
2019-03-25T13:18:33.631Z,13.19
2019-03-25T13:21:01.601Z,13.11
2019-03-25T13:23:29.564Z,12.70
2019-03-25T13:25:57.538Z,12.37
2019-03-25T13:28:25.504Z,12.36
2019-03-25T13:30:53.472Z,12.40
2019-03-25T13:33:21.650Z,12.22
2019-03-25T13:35:49.611Z,12.30
2019-03-25T13:38:17.580Z,12.32
2019-03-25T13:40:45.655Z,12.46
2019-03-25T13:43:14.235Z,12.47
2019-03-25T13:45:42.406Z,12.42
2019-03-25T13:48:10.273Z,12.44
2019-03-25T13:50:38.860Z,12.57
2019-03-25T13:53:06.928Z,12.65
2019-03-25T13:55:34.911Z,12.60
2019-03-25T13:58:03.378Z,12.60
2019-03-25T14:00:37.181Z,12.65
2019-03-25T14:03:04.841Z,12.55
2019-03-25T14:05:32.918Z,12.54
2019-03-25T14:08:00.990Z,12.79
2019-03-25T14:10:28.970Z,12.67
2019-03-25T14:12:56.921Z,12.74
2019-03-25T14:15:24.890Z,12.67
2019-03-25T14:17:52.883Z,12.79
2019-03-25T14:20:20.862Z,12.75
2019-03-25T14:22:48.906Z,12.61
2019-03-25T14:25:16.869Z,12.27
2019-03-25T14:27:44.957Z,12.23
2019-03-25T14:30:15.215Z,12.42
2019-03-25T14:32:43.135Z,12.05
2019-03-25T14:35:11.409Z,11.95
2019-03-25T14:37:39.270Z,12.08
2019-03-25T14:40:07.242Z,11.77
2019-03-25T14:42:35.212Z,11.87
2019-03-25T14:45:04.614Z,11.95
2019-03-25T14:47:32.372Z,11.86
2019-03-25T14:50:00.378Z,11.85
2019-03-25T14:52:28.823Z,11.64
2019-03-25T14:54:56.689Z,11.63
2019-03-25T14:57:24.760Z,11.63
2019-03-25T14:59:52.625Z,11.49
2019-03-25T15:02:21.102Z,11.38
2019-03-25T15:04:49.176Z,11.31
2019-03-25T15:07:17.149Z,11.21
2019-03-25T15:09:45.122Z,11.14
2019-03-25T15:12:13.082Z,11.21
2019-03-25T15:14:41.156Z,11.11
2019-03-25T15:17:09.137Z,11.10
2019-03-25T15:19:37.090Z,10.98
2019-03-25T15:22:05.067Z,11.03
2019-03-25T15:24:33.032Z,11.06
2019-03-25T15:27:00.998Z,11.16
2019-03-25T15:29:28.865Z,11.22
2019-03-25T15:31:56.833Z,11.27
2019-03-25T15:34:24.905Z,11.26
2019-03-25T15:36:53.080Z,11.27
2019-03-25T15:39:21.154Z,11.29
2019-03-25T15:41:49.324Z,11.30
2019-03-25T15:44:17.291Z,11.16
2019-03-25T15:46:55.290Z,11.16
2019-03-25T15:49:14.865Z,11.21
2019-03-25T15:51:43.973Z,11.15
2019-03-25T15:54:12.240Z,10.96
2019-03-25T15:56:40.101Z,11.03
2019-03-25T15:59:07.967Z,10.90
2019-03-25T16:01:36.341Z,10.78
2019-03-25T16:04:04.208Z,10.61
2019-03-25T16:06:33.007Z,10.58
2019-03-25T16:09:00.978Z,10.61
2019-03-25T16:11:28.942Z,10.71
2019-03-25T16:13:56.902Z,10.62
2019-03-25T16:16:25.076Z,10.62
2019-03-25T16:18:52.944Z,10.54
2019-03-25T16:21:20.922Z,10.47
2019-03-25T16:23:48.880Z,10.49
2019-03-25T16:26:17.260Z,10.51
2019-03-25T16:28:45.019Z,10.42
2019-03-25T16:31:13.000Z,10.41
2019-03-25T16:33:41.064Z,10.42
2019-03-25T16:36:09.360Z,10.49
2019-03-25T16:38:37.406Z,10.63
2019-03-25T16:41:05.279Z,10.64
2019-03-25T16:43:34.267Z,10.53
2019-03-25T16:46:02.339Z,10.42
2019-03-25T16:48:30.954Z,10.41
2019-03-25T16:50:58.993Z,10.60
2019-03-25T16:53:27.576Z,10.84
2019-03-25T16:55:55.443Z,10.78
2019-03-25T16:58:23.409Z,10.80
2019-03-25T17:00:51.786Z,10.95
2019-03-25T17:03:19.654Z,10.82
2019-03-25T17:05:47.620Z,10.77
2019-03-25T17:08:15.790Z,10.72
2019-03-25T17:10:43.869Z,10.77
2019-03-25T17:13:11.937Z,10.35
2019-03-25T17:15:39.907Z,10.43
2019-03-25T17:18:07.771Z,10.22
2019-03-25T17:20:35.946Z,10.20
2019-03-25T17:23:03.913Z,10.17
2019-03-25T17:25:32.603Z,10.24
2019-03-25T17:28:00.567Z,10.15
2019-03-25T17:30:28.428Z,10.31
2019-03-25T17:32:56.504Z,10.03
2019-03-25T17:35:24.573Z,9.91
2019-03-25T17:37:53.363Z,9.70
2019-03-25T17:40:21.395Z,9.56
2019-03-25T17:42:49.508Z,9.39
2019-03-25T17:45:17.579Z,9.36
2019-03-25T17:47:47.398Z,9.24
2019-03-25T17:50:16.189Z,9.34
2019-03-25T17:52:45.250Z,9.14
2019-03-25T17:55:14.986Z,9.21
2019-03-25T17:57:43.175Z,9.12
2019-03-25T18:00:11.429Z,9.18
2019-03-25T18:02:39.391Z,9.14
2019-03-25T18:05:08.085Z,9.05
2019-03-25T18:07:36.159Z,9.06
2019-03-25T18:10:06.986Z,8.93
2019-03-25T18:12:39.137Z,9.04
2019-03-25T18:15:08.285Z,8.81
2019-03-25T18:17:36.013Z,8.69
2019-03-25T18:20:06.032Z,8.71
2019-03-25T18:22:39.479Z,8.90
2019-03-25T18:25:05.860Z,8.71
2019-03-25T18:27:33.826Z,8.76
2019-03-25T18:30:01.895Z,8.66
2019-03-25T18:32:30.278Z,8.74
2019-03-25T18:34:58.453Z,8.71
2019-03-25T18:37:26.626Z,8.90
2019-03-25T18:39:54.592Z,8.69
2019-03-25T18:42:23.277Z,8.70
2019-03-25T18:44:51.142Z,8.70
2019-03-25T18:47:19.221Z,8.73
2019-03-25T18:49:47.285Z,8.69
2019-03-25T18:52:15.252Z,8.65
2019-03-25T18:54:45.683Z,8.64
2019-03-25T18:57:13.663Z,8.67
2019-03-25T18:59:41.825Z,8.58
2019-03-25T19:02:10.199Z,8.57
2019-03-25T19:04:37.860Z,8.53
2019-03-25T19:07:05.830Z,8.54
2019-03-25T19:09:33.702Z,8.64
2019-03-25T19:12:01.684Z,8.69
2019-03-25T19:14:30.472Z,8.63
2019-03-25T19:16:59.988Z,8.49
2019-03-25T19:19:27.634Z,8.57
2019-03-25T19:21:55.588Z,8.73
2019-03-25T19:24:23.722Z,8.80
2019-03-25T19:26:52.869Z,8.76
2019-03-25T19:29:21.645Z,8.78
2019-03-25T19:31:49.648Z,8.77
2019-03-25T19:34:17.479Z,8.53
2019-03-25T19:36:45.662Z,8.60
2019-03-25T19:39:13.726Z,8.46
2019-03-25T19:41:41.789Z,8.75
2019-03-25T19:44:09.758Z,8.65
2019-03-25T19:46:37.731Z,8.51
2019-03-25T19:49:05.728Z,8.56
2019-03-25T19:51:33.692Z,8.33
2019-03-25T19:54:02.148Z,8.49
2019-03-25T19:56:30.731Z,8.31
2019-03-25T19:59:01.876Z,8.28
2019-03-25T20:01:30.382Z,8.31
2019-03-25T20:03:58.327Z,8.13
2019-03-25T20:06:26.678Z,8.07
2019-03-25T20:08:54.571Z,8.28
2019-03-25T20:11:22.565Z,8.18
2019-03-25T20:13:50.607Z,8.23
2019-03-25T20:16:18.682Z,8.13
2019-03-25T20:18:46.659Z,8.10
2019-03-25T20:21:14.509Z,7.97
2019-03-25T20:23:42.576Z,8.05
2019-03-25T20:26:10.751Z,8.07
2019-03-25T20:28:38.625Z,7.92
2019-03-25T20:31:06.633Z,7.90
2019-03-25T20:33:34.763Z,7.85
2019-03-25T20:36:02.757Z,7.91
2019-03-25T20:38:30.944Z,7.91
2019-03-25T20:40:58.773Z,7.76
2019-03-25T20:43:26.951Z,7.81
2019-03-25T20:45:54.950Z,7.65
2019-03-25T20:48:22.882Z,7.65
2019-03-25T20:50:51.018Z,7.65
2019-03-25T20:53:19.666Z,7.45
2019-03-25T20:55:47.307Z,7.41
2019-03-25T20:58:15.340Z,7.65
2019-03-25T21:00:45.374Z,7.65
2019-03-25T21:03:13.358Z,7.62
2019-03-25T21:05:41.595Z,7.62
2019-03-25T21:08:12.138Z,7.68
2019-03-25T21:10:40.225Z,7.70
2019-03-25T21:13:08.273Z,7.91
2019-03-25T21:15:36.281Z,8.01
2019-03-25T21:18:04.554Z,7.97
2019-03-25T21:20:32.538Z,8.13
2019-03-25T21:23:00.741Z,8.13
2019-03-25T21:25:28.856Z,8.00
2019-03-25T21:27:56.930Z,7.81
2019-03-25T21:30:25.011Z,7.95
2019-03-25T21:32:58.666Z,7.91
2019-03-25T21:35:23.289Z,7.98
2019-03-25T21:37:51.568Z,7.98
2019-03-25T21:40:19.662Z,8.00
2019-03-25T21:42:47.631Z,7.98
2019-03-25T21:45:15.616Z,7.98
2019-03-25T21:47:43.940Z,7.87
2019-03-25T21:50:12.458Z,7.82
2019-03-25T21:52:40.818Z,7.94
2019-03-25T21:55:08.810Z,7.94
2019-03-25T21:57:36.800Z,7.90
2019-03-25T22:00:05.881Z,7.70
2019-03-25T22:02:33.921Z,7.72
2019-03-25T22:05:01.985Z,7.69
2019-03-25T22:07:30.875Z,7.66
2019-03-25T22:09:58.848Z,7.58
2019-03-25T22:12:26.812Z,7.58
2019-03-25T22:14:54.884Z,7.58
2019-03-25T22:17:22.646Z,7.56
2019-03-25T22:19:50.620Z,7.53
2019-03-25T22:22:18.593Z,7.54
2019-03-25T22:24:46.769Z,7.45
2019-03-25T22:27:14.726Z,7.48
2019-03-25T22:29:42.695Z,7.53
2019-03-25T22:32:10.867Z,7.45
2019-03-25T22:34:38.940Z,7.43
2019-03-25T22:37:07.009Z,7.40
2019-03-25T22:39:34.977Z,7.38
2019-03-25T22:42:02.950Z,7.37
2019-03-25T22:44:31.324Z,7.31
2019-03-25T22:46:59.294Z,7.30
2019-03-25T22:49:27.159Z,7.35
2019-03-25T22:51:55.123Z,7.30
2019-03-25T22:54:23.810Z,7.26
2019-03-25T22:56:51.682Z,7.18
2019-03-25T22:59:19.752Z,7.27
2019-03-25T23:01:48.435Z,7.18
2019-03-25T23:04:16.712Z,7.28
2019-03-25T23:06:44.784Z,7.08
2019-03-25T23:09:13.470Z,7.12
2019-03-25T23:11:41.434Z,7.26
2019-03-25T23:14:09.405Z,7.24
2019-03-25T23:16:37.373Z,7.14
2019-03-25T23:19:05.348Z,7.03
2019-03-25T23:21:33.313Z,7.05
2019-03-25T23:24:01.383Z,6.97
2019-03-25T23:26:29.661Z,7.02
2019-03-25T23:28:57.421Z,6.90
2019-03-25T23:31:25.389Z,6.97
2019-03-25T23:33:53.358Z,6.89
2019-03-25T23:36:21.535Z,6.91
2019-03-25T23:38:49.707Z,6.83
2019-03-25T23:41:17.672Z,7.00
2019-03-25T23:43:45.643Z,6.90
2019-03-25T23:46:13.615Z,6.83
2019-03-25T23:48:41.580Z,6.97
2019-03-25T23:51:09.748Z,6.82
2019-03-25T23:53:38.231Z,6.86
2019-03-25T23:56:06.103Z,6.90
2019-03-25T23:58:34.173Z,6.88
